Home   Weather   Spain   Benidorm   Past weeks
Flag for Spain

Past Weather in Benidorm, Alicante, Spain — Yesterday and Last 2 Weeks

Currently: 75 °F. Passing clouds. (Weather station: Alicante / El Altet, Spain). See more current weather

Past Weather in Benidorm — Graph

°F

Benidorm Temperature Yesterday

Maximum temperature yesterday: 82 °F (at 12:30 pm)
Minimum temperature yesterday: 68 °F (at 5:00 am)
Average temperature yesterday: 76 °F

High & Low Weather Summary for the Past Weeks

 TemperatureHumidityPressure
High93 °F (Jun 15, 4:00 pm)94% (Jun 11, 7:00 pm)30.18 "Hg (Jun 11, 7:00 pm)
Low59 °F (Jun 13, 3:30 am)22% (Jun 14, 3:30 pm)29.71 "Hg (Jun 8, 6:00 pm)
Average74 °F63%29.92 "Hg
* Reported Jun 6 7:00 pm — Jun 21 7:30 pm, Benidorm. Weather by CustomWeather, © 2024

Note: Actual official high and low records may vary slightly from our data, if they occured in-between our weather recording intervals... More about our weather records

Benidorm Weather History for the Previous 24 Hours

Scroll right to see more
 ConditionsComfort  
Time TempWeatherWind HumidityBarometerVisibility
7:30 pm
Fri, Jun 21
75 °FPassing clouds.8 mph69%30.09 "HgN/A
7:00 pm77 °FPassing clouds.7 mph65%30.09 "HgN/A
6:30 pm77 °FPassing clouds.8 mph57%30.09 "HgN/A
6:00 pm77 °FPassing clouds.9 mph51%30.09 "HgN/A
5:30 pm79 °FPassing clouds.9 mph51%30.09 "HgN/A
5:00 pm77 °FPassing clouds.9 mph54%30.09 "HgN/A
4:30 pm77 °FPassing clouds.9 mph61%30.09 "HgN/A
4:00 pm77 °FPassing clouds.10 mph61%30.09 "HgN/A
3:30 pm77 °FPassing clouds.12 mph61%30.12 "HgN/A
3:00 pm77 °FPassing clouds.14 mph61%30.12 "HgN/A
2:30 pm77 °FPassing clouds.15 mph65%30.12 "HgN/A
2:00 pm77 °FPassing clouds.14 mph65%30.12 "HgN/A
1:30 pm77 °FPassing clouds.15 mph61%30.12 "HgN/A
1:00 pm79 °FPassing clouds.15 mph61%30.12 "HgN/A
12:30 pm79 °FPassing clouds.14 mph58%30.12 "HgN/A
12:00 pm81 °FPassing clouds.13 mph45%30.12 "HgN/A
11:00 am82 °FSunny.3 mph35%30.09 "Hg10 mi
10:00 am81 °FPassing clouds.3 mph30%30.09 "HgN/A
9:30 am79 °FSunny.3 mph32%30.09 "Hg10 mi
9:00 am77 °FPassing clouds.7 mph36%30.09 "HgN/A
8:30 am75 °FPassing clouds.7 mph39%30.09 "HgN/A
7:30 am72 °FPassing clouds.7 mph44%30.07 "HgN/A
7:00 am72 °FPassing clouds.9 mph44%30.07 "HgN/A
6:30 am72 °FClear.10 mph44%30.07 "Hg10 mi
6:00 am73 °FPassing clouds.12 mph41%30.04 "HgN/A
5:30 am73 °FClear.10 mph38%30.04 "Hg10 mi
5:00 am73 °FClear.9 mph38%30.04 "Hg10 mi
4:30 am73 °FClear.8 mph38%30.04 "Hg10 mi
4:00 am73 °FClear.9 mph38%30.04 "Hg10 mi
3:30 am73 °FClear.7 mph38%30.04 "Hg10 mi
3:00 am72 °FPassing clouds.6 mph41%30.04 "HgN/A
2:30 am70 °FClear.8 mph57%30.04 "Hg10 mi
2:00 am70 °FClear.7 mph57%30.04 "Hg10 mi
1:30 am72 °FClear.2 mph57%30.04 "Hg10 mi
1:00 am72 °FClear.2 mph57%30.04 "Hg10 mi
12:30 am72 °FClear.No wind57%30.04 "Hg10 mi
12:00 am75 °FClear.2 mph47%30.04 "Hg10 mi
11:00 pm
Thu, Jun 20
73 °FClear.2 mph57%30.01 "Hg10 mi
10:30 pm73 °FClear.No wind61%30.01 "Hg10 mi
10:00 pm75 °FPassing clouds.5 mph57%29.98 "HgN/A
9:30 pm77 °FPassing clouds.6 mph51%29.98 "HgN/A
9:00 pm77 °FPassing clouds.9 mph51%29.95 "HgN/A
8:30 pm79 °FPassing clouds.9 mph45%29.95 "HgN/A
8:00 pm79 °FPassing clouds.9 mph42%29.92 "HgN/A
Weather by CustomWeather, © 2024

See weather overview